Time;durP1;ratioP1;P1;durP2;ratioP2;P2;SDS_P1;SDS_P2;PMS_P1;PMS_P2;Temp;Humidity;BMP_temperature;BMP_pressure;BME280_temperature;BME280_humidity;BME280_pressure;Samples;Min_cycle;Max_cycle;Signal;HPM_P1;HPM_P2
2022/11/06 00:00:11;;;;;;;4.80;2.20;;;;;;;;;;4993239;28;20136;-42
2022/11/06 00:02:37;;;;;;;5.00;2.30;;;;;;;;;;4990320;28;20112;-44
2022/11/06 00:07:48;;;;;;;4.55;2.65;;;;;;;;;;4993012;28;21637;-44
2022/11/06 00:10:14;;;;;;;6.72;2.50;;;;;;;;;;4996013;28;20152;-43
2022/11/06 00:12:40;;;;;;;4.60;2.33;;;;;;;;;;4998215;28;20031;-43
2022/11/06 00:15:06;;;;;;;2.60;2.17;;;;;;;;;;4991254;28;20553;-42
2022/11/06 00:17:31;;;;;;;3.50;2.53;;;;;;;;;;4998098;28;20022;-42
2022/11/06 00:19:57;;;;;;;6.45;2.85;;;;;;;;;;4994137;28;20042;-42
2022/11/06 00:22:22;;;;;;;7.05;2.40;;;;;;;;;;4996700;28;20049;-42
2022/11/06 00:24:50;;;;;;;3.00;2.40;;;;;;;;;;5001200;28;20034;-43
2022/11/06 00:27:16;;;;;;;4.70;2.58;;;;;;;;;;4997523;28;20030;-42
2022/11/06 00:29:41;;;;;;;8.70;2.80;;;;;;;;;;4992119;28;20048;-48
2022/11/06 00:32:07;;;;;;;5.22;2.67;;;;;;;;;;4996579;28;20080;-42
2022/11/06 00:34:33;;;;;;;4.00;2.75;;;;;;;;;;5002086;28;20095;-43
2022/11/06 00:36:58;;;;;;;4.05;2.58;;;;;;;;;;5000343;28;20034;-43
2022/11/06 00:39:23;;;;;;;9.02;3.63;;;;;;;;;;4999017;28;20050;-43
2022/11/06 00:41:49;;;;;;;5.88;3.28;;;;;;;;;;4998472;28;20036;-45
2022/11/06 00:44:14;;;;;;;8.40;3.67;;;;;;;;;;4996019;28;20053;-43
2022/11/06 00:46:39;;;;;;;8.65;2.80;;;;;;;;;;4995399;28;20038;-44
2022/11/06 00:49:05;;;;;;;5.05;2.88;;;;;;;;;;4994049;28;20052;-46
2022/11/06 00:51:34;;;;;;;6.60;2.40;;;;;;;;;;4998011;28;20437;-44
2022/11/06 00:54:02;;;;;;;2.50;2.15;;;;;;;;;;4998010;28;20038;-42
2022/11/06 00:56:28;;;;;;;2.30;1.80;;;;;;;;;;4995724;28;20096;-42
2022/11/06 00:58:54;;;;;;;2.83;2.10;;;;;;;;;;4999765;28;20109;-42
2022/11/06 01:01:25;;;;;;;4.47;2.03;;;;;;;;;;4998042;28;20061;-42
2022/11/06 01:03:54;;;;;;;2.58;2.00;;;;;;;;;;4995357;28;20038;-44
2022/11/06 01:06:22;;;;;;;3.38;1.80;;;;;;;;;;5000211;28;20029;-42
2022/11/06 01:08:48;;;;;;;5.75;1.88;;;;;;;;;;4991280;28;20034;-42
2022/11/06 01:11:16;;;;;;;2.60;1.77;;;;;;;;;;4994955;28;20060;-43
2022/11/06 01:13:43;;;;;;;4.72;2.17;;;;;;;;;;4998287;28;20033;-43
2022/11/06 01:16:11;;;;;;;2.50;2.30;;;;;;;;;;4999757;28;20034;-43
2022/11/06 01:18:37;;;;;;;3.17;2.88;;;;;;;;;;4998033;28;20030;-43
2022/11/06 01:21:18;;;;;;;3.00;2.80;;;;;;;;;;4992817;28;20482;-43
2022/11/06 01:23:44;;;;;;;3.67;2.38;;;;;;;;;;4995993;28;20121;-43
2022/11/06 01:26:11;;;;;;;2.40;2.20;;;;;;;;;;4997640;28;20136;-43
2022/11/06 01:28:38;;;;;;;3.90;2.28;;;;;;;;;;5000887;28;20034;-44
2022/11/06 01:31:15;;;;;;;2.63;2.42;;;;;;;;;;4993332;28;20498;-43
2022/11/06 01:33:41;;;;;;;3.05;1.95;;;;;;;;;;4998116;28;20045;-46
2022/11/06 01:36:12;;;;;;;5.13;2.22;;;;;;;;;;4998902;28;20042;-42
2022/11/06 01:38:45;;;;;;;5.15;2.17;;;;;;;;;;4997090;28;20029;-42
2022/11/06 01:41:13;;;;;;;2.58;1.95;;;;;;;;;;4988422;28;20096;-42
2022/11/06 01:43:44;;;;;;;3.25;1.80;;;;;;;;;;4996050;28;20398;-42
2022/11/06 01:46:10;;;;;;;3.20;1.77;;;;;;;;;;4995633;28;20403;-43
2022/11/06 01:48:39;;;;;;;3.40;2.13;;;;;;;;;;4996353;28;20092;-45
2022/11/06 01:51:06;;;;;;;4.97;1.92;;;;;;;;;;4994316;28;20483;-42
2022/11/06 01:53:33;;;;;;;2.00;1.90;;;;;;;;;;4993754;28;20035;-42
2022/11/06 01:56:00;;;;;;;3.35;1.92;;;;;;;;;;5000062;28;20042;-43
2022/11/06 01:58:29;;;;;;;2.50;1.98;;;;;;;;;;4996554;28;20077;-43
2022/11/06 02:00:54;;;;;;;2.78;1.70;;;;;;;;;;4997053;28;20038;-44
2022/11/06 02:03:19;;;;;;;8.00;1.95;;;;;;;;;;4998146;28;20029;-45
2022/11/06 02:05:45;;;;;;;2.13;1.92;;;;;;;;;;4993359;28;20080;-42
2022/11/06 02:08:13;;;;;;;4.10;1.95;;;;;;;;;;4994451;28;20494;-42
2022/11/06 02:10:40;;;;;;;5.13;1.70;;;;;;;;;;4996033;28;20129;-42
2022/11/06 02:13:30;;;;;;;3.22;2.17;;;;;;;;;;4993267;28;20096;-42
2022/11/06 02:16:18;;;;;;;2.05;1.83;;;;;;;;;;4993805;28;20054;-44
2022/11/06 02:19:22;;;;;;;2.47;1.95;;;;;;;;;;4998597;28;20032;-42
2022/11/06 02:22:11;;;;;;;2.08;1.70;;;;;;;;;;4995829;28;20658;-42
2022/11/06 02:24:46;;;;;;;4.03;1.75;;;;;;;;;;4988686;28;20062;-44
2022/11/06 02:27:15;;;;;;;4.32;2.25;;;;;;;;;;4990770;28;20037;-42
2022/11/06 02:29:43;;;;;;;3.72;2.10;;;;;;;;;;4998905;28;20040;-42
2022/11/06 02:32:23;;;;;;;2.70;1.67;;;;;;;;;;4995168;28;20033;-43
2022/11/06 02:34:51;;;;;;;2.13;1.80;;;;;;;;;;4996691;28;20037;-46
2022/11/06 02:37:23;;;;;;;5.78;2.70;;;;;;;;;;4994852;28;20026;-42
2022/11/06 02:39:50;;;;;;;2.78;2.08;;;;;;;;;;4997139;28;20053;-43
2022/11/06 02:42:18;;;;;;;2.95;2.28;;;;;;;;;;4990392;28;20109;-42
2022/11/06 02:44:49;;;;;;;2.45;2.00;;;;;;;;;;4995308;28;20039;-42
2022/11/06 02:47:15;;;;;;;4.95;2.38;;;;;;;;;;4995562;28;20045;-43
2022/11/06 02:49:57;;;;;;;2.63;1.77;;;;;;;;;;4993077;28;20030;-45
2022/11/06 02:52:28;;;;;;;2.17;1.92;;;;;;;;;;4992155;28;20517;-42
2022/11/06 02:55:03;;;;;;;2.58;2.22;;;;;;;;;;4995539;28;20042;-42
2022/11/06 02:57:34;;;;;;;2.28;1.92;;;;;;;;;;4993837;28;20098;-42
2022/11/06 03:00:08;;;;;;;2.37;2.17;;;;;;;;;;4993669;28;20042;-43
2022/11/06 03:02:39;;;;;;;4.32;2.03;;;;;;;;;;4994887;28;20476;-44
2022/11/06 03:05:28;;;;;;;2.93;2.27;;;;;;;;;;4995516;28;20446;-46
2022/11/06 03:08:05;;;;;;;2.85;2.40;;;;;;;;;;5000205;28;20117;-42
2022/11/06 03:10:41;;;;;;;2.35;2.15;;;;;;;;;;4995381;28;20046;-43
2022/11/06 03:13:17;;;;;;;3.60;2.20;;;;;;;;;;4994867;28;20073;-42
2022/11/06 03:16:06;;;;;;;3.67;2.75;;;;;;;;;;4996185;28;20077;-44
2022/11/06 03:18:46;;;;;;;2.70;2.47;;;;;;;;;;4994769;28;20049;-43
2022/11/06 03:21:37;;;;;;;2.65;2.40;;;;;;;;;;4993764;28;20530;-42
2022/11/06 03:24:13;;;;;;;5.68;2.25;;;;;;;;;;4985669;28;20045;-42
2022/11/06 03:26:44;;;;;;;4.90;2.38;;;;;;;;;;4993434;28;20034;-43
2022/11/06 03:29:13;;;;;;;3.10;2.28;;;;;;;;;;4995053;28;20044;-42
2022/11/06 03:32:17;;;;;;;8.70;2.45;;;;;;;;;;4993231;28;20049;-42
2022/11/06 03:34:54;;;;;;;2.55;2.35;;;;;;;;;;4972474;28;20541;-44
2022/11/06 03:37:29;;;;;;;3.47;2.05;;;;;;;;;;4968661;28;20085;-42
2022/11/06 03:39:58;;;;;;;3.25;2.28;;;;;;;;;;4969490;28;20577;-42
2022/11/06 03:42:29;;;;;;;3.55;2.28;;;;;;;;;;4959906;28;20027;-42
2022/11/06 03:44:59;;;;;;;3.20;2.10;;;;;;;;;;4975198;28;20035;-44
2022/11/06 03:47:32;;;;;;;2.67;1.98;;;;;;;;;;4974381;28;20538;-44
2022/11/06 03:50:06;;;;;;;1.90;1.80;;;;;;;;;;4973740;28;20038;-42
2022/11/06 03:52:47;;;;;;;3.03;2.03;;;;;;;;;;4970527;28;20518;-43
2022/11/06 03:55:17;;;;;;;2.55;2.05;;;;;;;;;;4982317;28;20060;-43
2022/11/06 03:58:05;;;;;;;1.77;1.58;;;;;;;;;;4977889;28;20051;-42
2022/11/06 04:00:34;;;;;;;3.58;2.00;;;;;;;;;;4982003;28;20041;-42
2022/11/06 04:03:05;;;;;;;1.88;1.75;;;;;;;;;;4974680;28;20054;-44
2022/11/06 04:05:39;;;;;;;3.63;2.08;;;;;;;;;;4975756;28;20057;-42
2022/11/06 04:13:56;;;;;;;2.45;2.17;;;;;;;;;;4986661;28;20068;-42
2022/11/06 04:16:30;;;;;;;2.13;1.83;;;;;;;;;;5004502;28;20745;-42
2022/11/06 04:18:56;;;;;;;2.42;1.60;;;;;;;;;;4985795;28;20074;-43
2022/11/06 04:21:43;;;;;;;2.00;1.70;;;;;;;;;;5002610;28;20062;-44
2022/11/06 04:27:36;;;;;;;2.45;1.50;;;;;;;;;;4995266;28;20081;-41
2022/11/06 04:30:08;;;;;;;2.47;1.70;;;;;;;;;;4998125;28;20046;-42
2022/11/06 04:32:47;;;;;;;1.98;1.77;;;;;;;;;;4997570;28;20446;-43
2022/11/06 04:35:50;;;;;;;2.88;1.80;;;;;;;;;;5001181;28;20038;-48
2022/11/06 04:38:34;;;;;;;;;;;;;;;;;;4999763;28;20046;-41
2022/11/06 04:41:15;;;;;;;1.88;1.58;;;;;;;;;;5000374;28;19921;-42
2022/11/06 04:43:56;;;;;;;2.33;1.40;;;;;;;;;;4991184;28;20889;-44
2022/11/06 04:46:26;;;;;;;1.60;1.50;;;;;;;;;;4999151;28;20049;-42
2022/11/06 04:48:52;;;;;;;1.40;1.30;;;;;;;;;;4998319;28;20124;-45
2022/11/06 04:51:21;;;;;;;2.25;1.40;;;;;;;;;;4996462;28;20109;-43
2022/11/06 04:53:48;;;;;;;1.60;1.50;;;;;;;;;;4991782;28;20062;-42
2022/11/06 04:56:22;;;;;;;1.65;1.52;;;;;;;;;;4996219;28;20038;-43
2022/11/06 04:58:47;;;;;;;1.92;1.60;;;;;;;;;;4999094;28;20084;-42
2022/11/06 05:01:12;;;;;;;1.58;1.45;;;;;;;;;;4996476;28;20490;-42
2022/11/06 05:03:38;;;;;;;1.70;1.60;;;;;;;;;;4995428;28;20028;-43
2022/11/06 05:06:03;;;;;;;1.88;1.50;;;;;;;;;;4987659;28;20523;-42
2022/11/06 05:08:29;;;;;;;1.92;1.48;;;;;;;;;;4996423;28;20129;-43
2022/11/06 05:10:54;;;;;;;3.17;1.42;;;;;;;;;;4997730;28;20045;-47
2022/11/06 05:13:19;;;;;;;1.70;1.25;;;;;;;;;;4992125;28;20026;-49
2022/11/06 05:15:45;;;;;;;1.83;1.50;;;;;;;;;;4995273;28;20038;-45
2022/11/06 05:18:10;;;;;;;1.42;1.33;;;;;;;;;;4994513;28;20034;-42
2022/11/06 05:20:37;;;;;;;2.45;1.33;;;;;;;;;;5000705;28;20038;-43
2022/11/06 05:23:02;;;;;;;2.40;1.50;;;;;;;;;;4997584;28;20044;-43
2022/11/06 05:25:33;;;;;;;1.60;1.50;;;;;;;;;;4992948;28;20043;-43
2022/11/06 05:27:59;;;;;;;2.85;1.40;;;;;;;;;;4999696;28;20390;-42
2022/11/06 05:30:25;;;;;;;1.95;1.50;;;;;;;;;;4994709;28;20052;-42
2022/11/06 05:32:51;;;;;;;1.55;1.45;;;;;;;;;;4998433;28;20026;-42
2022/11/06 05:35:18;;;;;;;1.65;1.55;;;;;;;;;;4992776;28;20042;-46
2022/11/06 05:37:44;;;;;;;1.27;1.23;;;;;;;;;;5001565;28;20029;-42
2022/11/06 05:40:10;;;;;;;1.42;1.33;;;;;;;;;;4997201;28;20758;-42
2022/11/06 05:42:37;;;;;;;5.03;2.42;;;;;;;;;;4996975;28;20026;-47
2022/11/06 05:45:02;;;;;;;2.53;1.75;;;;;;;;;;4989905;28;20088;-49
2022/11/06 05:47:28;;;;;;;2.45;1.58;;;;;;;;;;4994705;28;20108;-42
2022/11/06 05:49:53;;;;;;;3.72;1.70;;;;;;;;;;4995339;28;20528;-44
2022/11/06 05:52:18;;;;;;;2.22;1.40;;;;;;;;;;4991154;28;20495;-43
2022/11/06 05:54:44;;;;;;;4.45;1.17;;;;;;;;;;4996625;28;20038;-43
2022/11/06 05:57:09;;;;;;;1.30;1.20;;;;;;;;;;4996867;28;20877;-41
2022/11/06 05:59:34;;;;;;;1.27;1.17;;;;;;;;;;4996655;28;20038;-40
2022/11/06 06:02:00;;;;;;;1.65;1.27;;;;;;;;;;4995701;28;20515;-47
2022/11/06 06:04:25;;;;;;;1.25;1.15;;;;;;;;;;4994641;28;20125;-42
2022/11/06 06:06:51;;;;;;;1.77;1.20;;;;;;;;;;5000273;28;20092;-41
2022/11/06 06:09:16;;;;;;;1.42;1.10;;;;;;;;;;4993406;28;20121;-41
2022/11/06 06:11:41;;;;;;;1.10;1.10;;;;;;;;;;4993897;28;20029;-43
2022/11/06 06:14:07;;;;;;;1.55;1.30;;;;;;;;;;4994504;28;20144;-41
2022/11/06 06:16:32;;;;;;;1.13;1.10;;;;;;;;;;4993346;28;20042;-42
2022/11/06 06:18:58;;;;;;;1.48;1.38;;;;;;;;;;4998305;28;20027;-40
2022/11/06 06:21:23;;;;;;;1.40;1.30;;;;;;;;;;4999907;28;20359;-42
2022/11/06 06:23:48;;;;;;;1.52;1.40;;;;;;;;;;4997186;28;20054;-47
2022/11/06 06:26:14;;;;;;;3.25;1.45;;;;;;;;;;4998418;28;20040;-44
2022/11/06 06:28:39;;;;;;;1.50;1.40;;;;;;;;;;4992945;28;20060;-43
2022/11/06 06:31:06;;;;;;;1.13;1.13;;;;;;;;;;4998354;28;20125;-41
2022/11/06 06:33:32;;;;;;;1.10;1.10;;;;;;;;;;4987953;28;20447;-40
2022/11/06 06:35:57;;;;;;;2.42;1.23;;;;;;;;;;4997255;28;20058;-43
2022/11/06 06:38:24;;;;;;;1.30;1.20;;;;;;;;;;4997542;28;20560;-41
2022/11/06 06:40:50;;;;;;;1.55;1.33;;;;;;;;;;4998816;28;20041;-42
2022/11/06 06:43:15;;;;;;;2.65;1.20;;;;;;;;;;4991129;28;20037;-41
2022/11/06 06:45:40;;;;;;;2.90;1.30;;;;;;;;;;4995614;28;20053;-43
2022/11/06 06:48:06;;;;;;;2.97;1.55;;;;;;;;;;4994208;28;20026;-42
2022/11/06 06:50:32;;;;;;;4.10;1.35;;;;;;;;;;4995392;28;20523;-43
2022/11/06 06:52:58;;;;;;;1.50;1.40;;;;;;;;;;4996792;28;20033;-45
2022/11/06 06:55:24;;;;;;;1.58;1.42;;;;;;;;;;4997156;28;20103;-45
2022/11/06 06:57:57;;;;;;;1.92;1.58;;;;;;;;;;4997021;28;20022;-41
2022/11/06 07:00:22;;;;;;;2.70;1.30;;;;;;;;;;4991937;28;20130;-44
2022/11/06 07:02:48;;;;;;;1.40;1.30;;;;;;;;;;4991510;28;20118;-41
2022/11/06 07:05:13;;;;;;;1.17;1.13;;;;;;;;;;4993361;28;20037;-42
2022/11/06 07:07:38;;;;;;;1.35;1.20;;;;;;;;;;4997255;28;20035;-42
2022/11/06 07:10:04;;;;;;;1.67;1.40;;;;;;;;;;4997115;28;20138;-42
2022/11/06 07:12:30;;;;;;;2.90;1.25;;;;;;;;;;4999568;28;20030;-42
2022/11/06 07:14:55;;;;;;;1.50;1.08;;;;;;;;;;4989597;28;20037;-42
2022/11/06 07:17:20;;;;;;;1.25;1.20;;;;;;;;;;4992164;28;20031;-40
2022/11/06 07:19:46;;;;;;;1.25;1.05;;;;;;;;;;4993597;28;20402;-41
2022/11/06 07:22:11;;;;;;;1.48;1.30;;;;;;;;;;4991979;28;20097;-44
2022/11/06 07:24:37;;;;;;;1.65;1.40;;;;;;;;;;4993110;28;20137;-42
2022/11/06 07:27:02;;;;;;;3.85;1.17;;;;;;;;;;4994990;28;20030;-42
2022/11/06 07:29:27;;;;;;;2.00;1.35;;;;;;;;;;4997311;28;20038;-41
2022/11/06 07:31:53;;;;;;;2.60;1.00;;;;;;;;;;4996819;28;20079;-43
2022/11/06 07:34:18;;;;;;;1.63;1.00;;;;;;;;;;4993047;28;20435;-42
2022/11/06 07:36:43;;;;;;;1.10;1.00;;;;;;;;;;4990017;28;20022;-42
2022/11/06 07:39:09;;;;;;;1.58;1.00;;;;;;;;;;4993644;28;20045;-42
2022/11/06 07:41:34;;;;;;;1.15;1.05;;;;;;;;;;5000068;28;20034;-42
2022/11/06 07:43:59;;;;;;;1.90;1.10;;;;;;;;;;4988437;28;20423;-42
2022/11/06 07:46:25;;;;;;;1.73;1.08;;;;;;;;;;4992261;28;20063;-44
2022/11/06 07:48:50;;;;;;;1.00;0.90;;;;;;;;;;5001240;28;20447;-42
2022/11/06 07:51:16;;;;;;;1.10;1.00;;;;;;;;;;4995775;28;20030;-41
2022/11/06 07:53:41;;;;;;;1.67;1.02;;;;;;;;;;4984464;28;20046;-43
2022/11/06 07:56:07;;;;;;;1.65;1.30;;;;;;;;;;4991505;28;20034;-44
2022/11/06 07:58:33;;;;;;;0.98;0.98;;;;;;;;;;4994660;28;20404;-44
2022/11/06 08:00:58;;;;;;;2.05;1.00;;;;;;;;;;4987468;28;20033;-43
2022/11/06 08:03:25;;;;;;;1.50;1.10;;;;;;;;;;4987244;28;20057;-43
2022/11/06 08:05:50;;;;;;;1.08;1.05;;;;;;;;;;4988552;28;20046;-44
2022/11/06 08:08:16;;;;;;;1.77;1.27;;;;;;;;;;4984439;28;20034;-44
2022/11/06 08:10:46;;;;;;;1.50;1.40;;;;;;;;;;4988304;28;20084;-43
2022/11/06 08:13:15;;;;;;;1.77;1.00;;;;;;;;;;4987007;28;20096;-43
2022/11/06 08:15:42;;;;;;;1.20;1.10;;;;;;;;;;4986665;28;20096;-42
2022/11/06 08:18:09;;;;;;;1.10;1.10;;;;;;;;;;4988988;28;20434;-43
2022/11/06 08:20:36;;;;;;;1.10;1.00;;;;;;;;;;4984879;28;20030;-42
2022/11/06 08:23:03;;;;;;;2.15;1.50;;;;;;;;;;4981720;28;20089;-43
2022/11/06 08:25:30;;;;;;;4.45;1.30;;;;;;;;;;4990494;28;20525;-43
2022/11/06 08:28:00;;;;;;;3.22;1.70;;;;;;;;;;4989633;28;20030;-45
2022/11/06 08:30:28;;;;;;;2.13;1.52;;;;;;;;;;4983143;28;20394;-45
2022/11/06 08:32:54;;;;;;;1.73;1.17;;;;;;;;;;4981256;28;20034;-42
2022/11/06 08:35:20;;;;;;;1.30;1.20;;;;;;;;;;4985076;28;20049;-44
2022/11/06 08:37:46;;;;;;;2.15;1.52;;;;;;;;;;4979446;28;20059;-44
2022/11/06 08:40:12;;;;;;;1.55;1.15;;;;;;;;;;4990104;28;20518;-42
2022/11/06 08:42:37;;;;;;;1.85;1.38;;;;;;;;;;4976937;28;20499;-43
2022/11/06 08:45:04;;;;;;;2.25;1.75;;;;;;;;;;4981052;28;20034;-44
2022/11/06 08:47:30;;;;;;;3.75;1.40;;;;;;;;;;4988388;28;22087;-48
2022/11/06 08:49:55;;;;;;;2.22;1.70;;;;;;;;;;4979369;28;20388;-47
2022/11/06 08:52:20;;;;;;;3.33;1.27;;;;;;;;;;4979860;28;20092;-42
2022/11/06 08:54:46;;;;;;;1.40;1.30;;;;;;;;;;4982566;28;20617;-43
2022/11/06 08:57:11;;;;;;;1.98;1.20;;;;;;;;;;4994294;28;20042;-41
2022/11/06 08:59:37;;;;;;;2.30;1.50;;;;;;;;;;4988518;28;20053;-42
2022/11/06 09:02:02;;;;;;;2.22;2.00;;;;;;;;;;4983013;28;20510;-43
2022/11/06 09:04:27;;;;;;;2.92;1.88;;;;;;;;;;4987361;28;20073;-42
2022/11/06 09:06:55;;;;;;;2.50;2.30;;;;;;;;;;4985673;28;20518;-46
2022/11/06 09:09:21;;;;;;;4.03;1.90;;;;;;;;;;4992352;28;20074;-42
2022/11/06 09:11:46;;;;;;;4.25;1.58;;;;;;;;;;4992719;28;20053;-43
2022/11/06 09:14:11;;;;;;;3.20;1.60;;;;;;;;;;4981982;28;20041;-42
2022/11/06 09:16:37;;;;;;;5.32;1.58;;;;;;;;;;4983151;28;20018;-43
2022/11/06 09:19:02;;;;;;;1.88;1.42;;;;;;;;;;4987196;28;20253;-43
2022/11/06 09:21:27;;;;;;;2.45;1.60;;;;;;;;;;4991698;28;20030;-41
2022/11/06 09:23:53;;;;;;;1.70;1.60;;;;;;;;;;4985204;28;20046;-43
2022/11/06 09:26:18;;;;;;;1.50;1.40;;;;;;;;;;4994840;28;20069;-43
2022/11/06 09:28:45;;;;;;;1.40;1.15;;;;;;;;;;4992836;28;20049;-45
2022/11/06 09:31:10;;;;;;;2.03;1.48;;;;;;;;;;4990018;28;20125;-43
2022/11/06 09:33:36;;;;;;;2.08;1.40;;;;;;;;;;4992776;28;20122;-42
2022/11/06 09:36:05;;;;;;;1.75;1.45;;;;;;;;;;4986383;28;20018;-43
2022/11/06 09:38:31;;;;;;;2.22;1.67;;;;;;;;;;4982546;28;20126;-45
2022/11/06 09:40:59;;;;;;;1.75;1.27;;;;;;;;;;4983090;28;20030;-42
2022/11/06 09:43:34;;;;;;;3.20;1.23;;;;;;;;;;4988961;28;20039;-43
2022/11/06 09:46:08;;;;;;;1.38;1.20;;;;;;;;;;4992391;28;20034;-45
2022/11/06 09:48:40;;;;;;;1.13;1.13;;;;;;;;;;4990214;28;20050;-43
2022/11/06 09:51:40;;;;;;;1.70;1.60;;;;;;;;;;4984397;28;20577;-43
2022/11/06 09:54:30;;;;;;;3.55;1.50;;;;;;;;;;4990651;28;20081;-42
2022/11/06 09:57:09;;;;;;;7.40;2.38;;;;;;;;;;4992062;28;20493;-42
2022/11/06 09:59:37;;;;;;;2.63;2.05;;;;;;;;;;5000858;28;20128;-41
2022/11/06 10:02:18;;;;;;;2.80;2.03;;;;;;;;;;4995477;28;20026;-42
2022/11/06 10:04:54;;;;;;;2.03;1.83;;;;;;;;;;4996601;28;20045;-42
2022/11/06 10:07:33;;;;;;;2.10;1.77;;;;;;;;;;4998133;28;20062;-43
2022/11/06 10:10:00;;;;;;;9.43;2.80;;;;;;;;;;4999552;28;20046;-45
2022/11/06 10:13:03;;;;;;;6.05;2.92;;;;;;;;;;4997112;28;20029;-42
2022/11/06 10:15:57;;;;;;;2.45;1.50;;;;;;;;;;4988619;28;20036;-42
2022/11/06 10:18:33;;;;;;;2.35;1.63;;;;;;;;;;4987078;28;20090;-43
2022/11/06 10:21:23;;;;;;;2.83;1.70;;;;;;;;;;5000226;28;20025;-43
2022/11/06 10:23:55;;;;;;;1.67;1.58;;;;;;;;;;4992039;28;20328;-42
2022/11/06 10:26:38;;;;;;;1.65;1.38;;;;;;;;;;4997560;28;20395;-42
2022/11/06 10:29:34;;;;;;;1.55;1.45;;;;;;;;;;4998639;28;20571;-44
2022/11/06 10:32:21;;;;;;;2.22;1.50;;;;;;;;;;4992470;28;20085;-43
2022/11/06 10:34:51;;;;;;;1.52;1.42;;;;;;;;;;4993401;28;20045;-43
2022/11/06 10:37:21;;;;;;;2.35;1.45;;;;;;;;;;4998823;28;20030;-42
2022/11/06 10:39:48;;;;;;;2.92;1.50;;;;;;;;;;4997572;28;20121;-42
2022/11/06 10:42:17;;;;;;;2.20;1.65;;;;;;;;;;4993528;28;20137;-44
2022/11/06 10:44:48;;;;;;;2.50;1.73;;;;;;;;;;4998271;28;20080;-42
2022/11/06 10:47:18;;;;;;;4.32;1.85;;;;;;;;;;4997416;28;20044;-43
2022/11/06 10:49:52;;;;;;;2.25;1.50;;;;;;;;;;4991437;28;20392;-43
2022/11/06 10:52:31;;;;;;;2.65;1.80;;;;;;;;;;4997747;28;20039;-42
2022/11/06 10:55:05;;;;;;;2.22;1.77;;;;;;;;;;4995912;28;20061;-46
2022/11/06 10:57:50;;;;;;;3.03;2.10;;;;;;;;;;4986899;28;20038;-44
2022/11/06 11:00:16;;;;;;;1.98;1.63;;;;;;;;;;4993266;28;20022;-41
2022/11/06 11:02:48;;;;;;;3.30;1.75;;;;;;;;;;4991430;28;20600;-41
2022/11/06 11:05:16;;;;;;;1.92;1.50;;;;;;;;;;4997383;28;20058;-42
2022/11/06 11:07:44;;;;;;;2.22;1.58;;;;;;;;;;4995102;28;20042;-42
2022/11/06 11:10:22;;;;;;;1.63;1.52;;;;;;;;;;5000422;28;20103;-50
2022/11/06 11:12:48;;;;;;;1.40;1.30;;;;;;;;;;4995253;28;20942;-48
2022/11/06 11:15:19;;;;;;;2.72;1.58;;;;;;;;;;4997349;28;20052;-42
2022/11/06 11:18:09;;;;;;;2.67;1.80;;;;;;;;;;4993285;28;20093;-43
2022/11/06 11:20:37;;;;;;;2.67;1.80;;;;;;;;;;4993707;28;20030;-42
2022/11/06 11:23:21;;;;;;;7.43;2.13;;;;;;;;;;4993244;28;20487;-42
2022/11/06 11:25:52;;;;;;;4.95;1.95;;;;;;;;;;4990978;28;20080;-44
2022/11/06 11:28:21;;;;;;;1.50;1.40;;;;;;;;;;4997757;28;20043;-42
2022/11/06 11:30:53;;;;;;;5.30;1.60;;;;;;;;;;4995907;28;20023;-43
2022/11/06 11:33:22;;;;;;;3.92;1.58;;;;;;;;;;4997364;28;20047;-43
2022/11/06 11:35:50;;;;;;;1.65;1.55;;;;;;;;;;5000731;28;20125;-44
2022/11/06 11:38:17;;;;;;;1.67;1.33;;;;;;;;;;4995803;28;20042;-45
2022/11/06 11:40:43;;;;;;;3.00;1.70;;;;;;;;;;4998642;28;20053;-43
2022/11/06 11:43:28;;;;;;;1.67;1.45;;;;;;;;;;4991758;28;20478;-45
2022/11/06 11:46:08;;;;;;;4.32;1.73;;;;;;;;;;4990355;28;20495;-42
2022/11/06 11:48:45;;;;;;;2.22;2.03;;;;;;;;;;4990648;28;20062;-42
2022/11/06 11:51:19;;;;;;;1.85;1.40;;;;;;;;;;4995376;28;20088;-46
2022/11/06 11:53:44;;;;;;;1.65;1.55;;;;;;;;;;4997866;28;20121;-49
2022/11/06 11:56:16;;;;;;;2.75;1.58;;;;;;;;;;4993743;28;20165;-47
2022/11/06 11:58:49;;;;;;;1.35;1.15;;;;;;;;;;4993989;28;20566;-44
2022/11/06 12:01:15;;;;;;;2.65;1.23;;;;;;;;;;4985370;28;20613;-42
2022/11/06 12:03:44;;;;;;;2.22;1.80;;;;;;;;;;4998173;28;20121;-46
2022/11/06 12:06:13;;;;;;;1.50;1.40;;;;;;;;;;4994291;28;20033;-44
2022/11/06 12:08:43;;;;;;;2.13;1.40;;;;;;;;;;4992983;28;20081;-44
2022/11/06 12:11:15;;;;;;;2.53;1.70;;;;;;;;;;4998178;28;20079;-48
2022/11/06 12:13:40;;;;;;;2.33;1.60;;;;;;;;;;4998615;28;20088;-42
2022/11/06 12:16:18;;;;;;;3.08;1.70;;;;;;;;;;4998312;28;20109;-44
2022/11/06 12:18:53;;;;;;;2.38;1.42;;;;;;;;;;4999194;28;20049;-42
2022/11/06 12:21:32;;;;;;;2.40;1.55;;;;;;;;;;4999691;28;20037;-44
2022/11/06 12:24:00;;;;;;;1.70;1.60;;;;;;;;;;4998852;28;20714;-43
2022/11/06 12:26:33;;;;;;;3.30;1.52;;;;;;;;;;4999881;28;20042;-44
2022/11/06 12:29:06;;;;;;;5.43;1.60;;;;;;;;;;4998640;28;20431;-46
2022/11/06 12:31:43;;;;;;;2.20;1.40;;;;;;;;;;4994763;28;20030;-46
2022/11/06 12:34:22;;;;;;;1.90;1.60;;;;;;;;;;4997154;28;20120;-44
2022/11/06 12:37:00;;;;;;;3.13;1.77;;;;;;;;;;4996479;28;20077;-42
2022/11/06 12:39:31;;;;;;;5.28;1.50;;;;;;;;;;4998308;28;20034;-47
2022/11/06 12:41:57;;;;;;;1.98;1.73;;;;;;;;;;4997870;28;20076;-42
2022/11/06 12:44:22;;;;;;;1.52;1.40;;;;;;;;;;4996432;28;20043;-42
2022/11/06 12:47:12;;;;;;;2.67;1.45;;;;;;;;;;4998397;28;20053;-42
2022/11/06 12:49:55;;;;;;;4.22;1.70;;;;;;;;;;5009070;28;20045;-45
2022/11/06 12:52:47;;;;;;;4.30;1.60;;;;;;;;;;4997718;28;20053;-41
2022/11/06 12:55:33;;;;;;;2.60;1.60;;;;;;;;;;4991950;28;20137;-42
2022/11/06 12:58:13;;;;;;;1.60;1.50;;;;;;;;;;4994577;28;20049;-48
2022/11/06 13:00:57;;;;;;;3.40;2.38;;;;;;;;;;4993653;28;20029;-43
2022/11/06 13:03:57;;;;;;;5.47;2.50;;;;;;;;;;4995356;28;20048;-42
2022/11/06 13:06:52;;;;;;;6.25;1.90;;;;;;;;;;4995606;28;20091;-43
2022/11/06 13:09:44;;;;;;;3.70;1.38;;;;;;;;;;4999209;28;20038;-43
2022/11/06 13:12:32;;;;;;;2.40;1.67;;;;;;;;;;4983836;28;20046;-42
2022/11/06 13:15:25;;;;;;;3.75;1.90;;;;;;;;;;4985770;28;20038;-43
2022/11/06 13:17:57;;;;;;;4.28;1.80;;;;;;;;;;4984958;28;20047;-50
2022/11/06 13:20:30;;;;;;;2.35;1.70;;;;;;;;;;4990630;28;20058;-47
2022/11/06 13:23:10;;;;;;;8.57;2.03;;;;;;;;;;4985922;28;20049;-45
2022/11/06 13:25:47;;;;;;;3.90;1.70;;;;;;;;;;4983985;28;20750;-42
2022/11/06 13:28:15;;;;;;;3.60;1.63;;;;;;;;;;4987151;28;20057;-46
2022/11/06 13:30:42;;;;;;;3.55;1.63;;;;;;;;;;4979833;28;20042;-42
2022/11/06 13:33:22;;;;;;;1.50;1.40;;;;;;;;;;4981643;28;20092;-43
2022/11/06 13:35:47;;;;;;;1.58;1.35;;;;;;;;;;4983386;28;20041;-42
2022/11/06 13:38:16;;;;;;;1.85;1.38;;;;;;;;;;4984808;28;20209;-42
2022/11/06 13:40:44;;;;;;;4.25;1.73;;;;;;;;;;4988177;28;20026;-45
2022/11/06 13:43:09;;;;;;;1.58;1.38;;;;;;;;;;4981125;28;20076;-42
2022/11/06 13:45:58;;;;;;;2.67;1.50;;;;;;;;;;4986462;28;20053;-42
2022/11/06 13:48:59;;;;;;;3.08;1.30;;;;;;;;;;4985964;28;20054;-43
2022/11/06 13:51:33;;;;;;;1.95;1.60;;;;;;;;;;4974296;28;20050;-42
2022/11/06 13:54:29;;;;;;;2.60;1.73;;;;;;;;;;4974671;28;20045;-43
2022/11/06 13:57:13;;;;;;;1.55;1.40;;;;;;;;;;4980107;28;20026;-48
2022/11/06 13:59:57;;;;;;;1.88;1.48;;;;;;;;;;4966847;28;20540;-42
2022/11/06 14:02:54;;;;;;;3.13;1.75;;;;;;;;;;4977741;28;20109;-48
2022/11/06 14:05:47;;;;;;;3.85;1.45;;;;;;;;;;4973584;28;20047;-42
2022/11/06 14:08:17;;;;;;;3.88;1.55;;;;;;;;;;4978209;28;20046;-42
2022/11/06 14:10:54;;;;;;;2.80;1.40;;;;;;;;;;4970395;28;20031;-46
2022/11/06 14:13:26;;;;;;;2.03;1.60;;;;;;;;;;4975980;28;20129;-50
2022/11/06 14:16:24;;;;;;;2.80;1.77;;;;;;;;;;4976470;28;20022;-43
2022/11/06 14:19:12;;;;;;;3.15;1.90;;;;;;;;;;4978485;28;20393;-44
2022/11/06 14:21:54;;;;;;;2.60;1.83;;;;;;;;;;4961550;28;20143;-43
2022/11/06 14:24:33;;;;;;;;;;;;;;;;;;4973860;28;20043;-45
2022/11/06 14:27:23;;;;;;;3.15;2.33;;;;;;;;;;4983444;28;20329;-48
2022/11/06 14:30:01;;;;;;;2.45;1.70;;;;;;;;;;4997545;28;20399;-46
2022/11/06 14:32:30;;;;;;;3.38;1.80;;;;;;;;;;4989477;28;20029;-46
2022/11/06 14:34:56;;;;;;;7.18;2.33;;;;;;;;;;4994845;28;20030;-42
2022/11/06 14:37:24;;;;;;;2.17;1.70;;;;;;;;;;4998844;28;20038;-45
2022/11/06 14:39:49;;;;;;;1.85;1.75;;;;;;;;;;4994272;28;20042;-46
2022/11/06 14:42:36;;;;;;;5.53;1.98;;;;;;;;;;4998093;28;20040;-45
2022/11/06 14:45:12;;;;;;;5.07;1.83;;;;;;;;;;4993264;28;20080;-46
2022/11/06 14:47:40;;;;;;;3.53;2.00;;;;;;;;;;4993344;28;20030;-43
2022/11/06 14:50:23;;;;;;;5.68;1.80;;;;;;;;;;4991411;28;20038;-43
2022/11/06 14:53:06;;;;;;;1.75;1.50;;;;;;;;;;4995435;28;20041;-43
2022/11/06 14:55:41;;;;;;;2.40;1.50;;;;;;;;;;4997658;28;20043;-43
2022/11/06 14:58:21;;;;;;;3.67;1.60;;;;;;;;;;4996824;28;20042;-44
2022/11/06 15:00:49;;;;;;;3.38;2.00;;;;;;;;;;4996447;28;20034;-43
2022/11/06 15:03:21;;;;;;;1.55;1.30;;;;;;;;;;4998509;28;20125;-45
2022/11/06 15:05:46;;;;;;;3.05;1.50;;;;;;;;;;4996664;28;20490;-43
2022/11/06 15:08:44;;;;;;;3.58;1.67;;;;;;;;;;4994926;28;20044;-50
2022/11/06 15:11:29;;;;;;;4.38;1.98;;;;;;;;;;4993704;28;20088;-46
2022/11/06 15:14:15;;;;;;;4.32;2.40;;;;;;;;;;4999374;28;20052;-45
2022/11/06 15:16:42;;;;;;;11.10;9.18;;;;;;;;;;4999750;28;20025;-42
2022/11/06 15:19:28;;;;;;;3.10;2.80;;;;;;;;;;4994902;28;20122;-48
2022/11/06 15:22:13;;;;;;;6.05;2.40;;;;;;;;;;4995752;28;20095;-42